Аэропорт: Запорожье. Запорожье

ICAO: UKDE

METAR:
2021-04-21 20:00:00
UKDE 212000Z 17005MPS CAVOK 09/07 Q1018 R20/290752 NOSIG
METAR:
2021-04-21 17:06:00
TAF UKDE 211706Z 2118/2203 20004MPS 3100 BR BKN010 TEMPO 2118/2121 25007G12MPS 1000 TSRA BR BKN004 BKN020CB TEMPO 2121/2203 0300 FG VV001